Silk Hope, North Carolina
Current Conditions -  °F | °C
As of 3:35 PM on Saturday 20 Dec 2014 (Local Time) from K5W8 Reporting Station
Overcast Overcast  
Wind Chill: 38°   Ceiling: 800
Heat Index: 38°   Visibility: 10mi
Dew Point: 36°   Wind: 0mph
Humidity: 91%   Direction: NA
Pressure: 30.23"   Gusts: NA
Location:  35.7397°N, 79.4342°W
Report Text: K5W8 202035Z AUTO 00000KT 10SM OVC008 04/02 A3023 RMK AO2 T00350021
Loading
Personal Weather Stations






























Interactive Weather Map New forecast layout! Learn more

10-Day Weather Forecast

Advertisements
Track Severe Weather on mobile